sensor_id;sensor_type;location;lat;lon;timestamp;temperature;humidity
22966;DHT22;11649;48.090;9.754;2022-07-25T00:01:46;19.50;99.90
22966;DHT22;11649;48.090;9.754;2022-07-25T00:04:13;19.40;99.90
22966;DHT22;11649;48.090;9.754;2022-07-25T00:06:41;19.20;99.90
22966;DHT22;11649;48.090;9.754;2022-07-25T00:09:08;19.10;99.90
22966;DHT22;11649;48.090;9.754;2022-07-25T00:11:35;19.10;99.90
22966;DHT22;11649;48.090;9.754;2022-07-25T00:14:02;19.10;99.90
22966;DHT22;11649;48.090;9.754;2022-07-25T00:16:30;19.20;99.90
22966;DHT22;11649;48.090;9.754;2022-07-25T00:18:57;19.20;99.90
22966;DHT22;11649;48.090;9.754;2022-07-25T00:21:24;19.20;99.90
22966;DHT22;11649;48.090;9.754;2022-07-25T00:23:51;19.10;99.90
22966;DHT22;11649;48.090;9.754;2022-07-25T00:26:18;19.10;99.90
22966;DHT22;11649;48.090;9.754;2022-07-25T00:28:45;19.10;99.90
22966;DHT22;11649;48.090;9.754;2022-07-25T00:31:12;19.10;99.90
22966;DHT22;11649;48.090;9.754;2022-07-25T00:33:39;19.10;99.90
22966;DHT22;11649;48.090;9.754;2022-07-25T00:36:07;19.10;99.90
22966;DHT22;11649;48.090;9.754;2022-07-25T00:38:34;19.00;99.90
22966;DHT22;11649;48.090;9.754;2022-07-25T00:41:02;19.00;99.90
22966;DHT22;11649;48.090;9.754;2022-07-25T00:43:29;18.90;99.90
22966;DHT22;11649;48.090;9.754;2022-07-25T00:45:56;19.00;99.90
22966;DHT22;11649;48.090;9.754;2022-07-25T00:48:26;18.70;99.90
22966;DHT22;11649;48.090;9.754;2022-07-25T00:50:55;18.70;99.90
22966;DHT22;11649;48.090;9.754;2022-07-25T00:53:23;18.60;99.90
22966;DHT22;11649;48.090;9.754;2022-07-25T00:55:51;18.70;99.90
22966;DHT22;11649;48.090;9.754;2022-07-25T00:58:17;18.80;99.90
22966;DHT22;11649;48.090;9.754;2022-07-25T01:00:45;18.90;99.90
22966;DHT22;11649;48.090;9.754;2022-07-25T01:03:12;18.70;99.90
22966;DHT22;11649;48.090;9.754;2022-07-25T01:05:39;18.70;99.90
22966;DHT22;11649;48.090;9.754;2022-07-25T01:08:07;18.60;99.90
22966;DHT22;11649;48.090;9.754;2022-07-25T01:10:34;19.10;99.90
22966;DHT22;11649;48.090;9.754;2022-07-25T01:13:01;18.80;99.90
22966;DHT22;11649;48.090;9.754;2022-07-25T01:15:28;19.00;99.90
22966;DHT22;11649;48.090;9.754;2022-07-25T01:17:55;18.90;99.90
22966;DHT22;11649;48.090;9.754;2022-07-25T01:20:25;19.50;99.90
22966;DHT22;11649;48.090;9.754;2022-07-25T01:22:52;18.90;99.90
22966;DHT22;11649;48.090;9.754;2022-07-25T01:25:20;18.90;99.90
22966;DHT22;11649;48.090;9.754;2022-07-25T01:27:47;18.90;99.90
22966;DHT22;11649;48.090;9.754;2022-07-25T01:30:22;19.50;99.90
22966;DHT22;11649;48.090;9.754;2022-07-25T01:32:49;18.70;99.90
22966;DHT22;11649;48.090;9.754;2022-07-25T01:35:16;18.70;99.90
22966;DHT22;11649;48.090;9.754;2022-07-25T01:37:43;18.70;99.90
22966;DHT22;11649;48.090;9.754;2022-07-25T01:40:12;18.60;99.90
22966;DHT22;11649;48.090;9.754;2022-07-25T01:42:40;18.50;99.90
22966;DHT22;11649;48.090;9.754;2022-07-25T01:45:08;18.50;99.90
22966;DHT22;11649;48.090;9.754;2022-07-25T01:47:35;18.40;99.90
22966;DHT22;11649;48.090;9.754;2022-07-25T01:50:02;18.30;99.90
22966;DHT22;11649;48.090;9.754;2022-07-25T01:52:30;18.30;99.90
22966;DHT22;11649;48.090;9.754;2022-07-25T01:54:57;19.00;99.90
22966;DHT22;11649;48.090;9.754;2022-07-25T01:57:24;18.40;99.90
22966;DHT22;11649;48.090;9.754;2022-07-25T01:59:57;18.50;99.90
22966;DHT22;11649;48.090;9.754;2022-07-25T02:02:23;18.30;99.90
22966;DHT22;11649;48.090;9.754;2022-07-25T02:04:50;18.40;99.90
22966;DHT22;11649;48.090;9.754;2022-07-25T02:07:17;18.10;99.90
22966;DHT22;11649;48.090;9.754;2022-07-25T02:09:44;18.50;99.90
22966;DHT22;11649;48.090;9.754;2022-07-25T02:12:11;18.30;99.90
22966;DHT22;11649;48.090;9.754;2022-07-25T02:14:38;18.40;99.90
22966;DHT22;11649;48.090;9.754;2022-07-25T02:17:05;18.50;99.90
22966;DHT22;11649;48.090;9.754;2022-07-25T02:19:32;18.30;99.90
22966;DHT22;11649;48.090;9.754;2022-07-25T02:22:00;18.20;99.90
22966;DHT22;11649;48.090;9.754;2022-07-25T02:24:26;18.40;99.90
22966;DHT22;11649;48.090;9.754;2022-07-25T02:26:53;18.20;99.90
22966;DHT22;11649;48.090;9.754;2022-07-25T02:29:20;18.60;99.90
22966;DHT22;11649;48.090;9.754;2022-07-25T02:31:48;18.00;99.90
22966;DHT22;11649;48.090;9.754;2022-07-25T02:34:14;18.10;99.90
22966;DHT22;11649;48.090;9.754;2022-07-25T02:36:41;18.20;99.90
22966;DHT22;11649;48.090;9.754;2022-07-25T02:39:08;18.10;99.90
22966;DHT22;11649;48.090;9.754;2022-07-25T02:41:35;18.50;99.90
22966;DHT22;11649;48.090;9.754;2022-07-25T02:44:03;18.30;99.90
22966;DHT22;11649;48.090;9.754;2022-07-25T02:46:31;18.20;99.90
22966;DHT22;11649;48.090;9.754;2022-07-25T02:48:58;18.60;99.90
22966;DHT22;11649;48.090;9.754;2022-07-25T02:51:25;18.30;99.90
22966;DHT22;11649;48.090;9.754;2022-07-25T02:53:52;18.00;99.90
22966;DHT22;11649;48.090;9.754;2022-07-25T02:56:25;18.00;99.90
22966;DHT22;11649;48.090;9.754;2022-07-25T02:58:55;17.90;99.90
22966;DHT22;11649;48.090;9.754;2022-07-25T03:01:22;18.20;99.90
22966;DHT22;11649;48.090;9.754;2022-07-25T03:03:50;17.80;99.90
22966;DHT22;11649;48.090;9.754;2022-07-25T03:06:17;17.60;99.90
22966;DHT22;11649;48.090;9.754;2022-07-25T03:08:43;18.00;99.90
22966;DHT22;11649;48.090;9.754;2022-07-25T03:11:11;17.80;99.90
22966;DHT22;11649;48.090;9.754;2022-07-25T03:13:38;17.80;99.90
22966;DHT22;11649;48.090;9.754;2022-07-25T03:16:05;17.70;99.90
22966;DHT22;11649;48.090;9.754;2022-07-25T03:18:32;17.60;99.90
22966;DHT22;11649;48.090;9.754;2022-07-25T03:20:59;17.70;99.90
22966;DHT22;11649;48.090;9.754;2022-07-25T03:23:26;18.00;99.90
22966;DHT22;11649;48.090;9.754;2022-07-25T03:25:54;17.60;99.90
22966;DHT22;11649;48.090;9.754;2022-07-25T03:28:22;17.50;99.90
22966;DHT22;11649;48.090;9.754;2022-07-25T03:30:50;17.60;99.90
22966;DHT22;11649;48.090;9.754;2022-07-25T03:33:17;17.70;99.90
22966;DHT22;11649;48.090;9.754;2022-07-25T03:35:44;18.10;99.90
22966;DHT22;11649;48.090;9.754;2022-07-25T03:38:11;17.70;99.90
22966;DHT22;11649;48.090;9.754;2022-07-25T03:40:38;17.60;99.90
22966;DHT22;11649;48.090;9.754;2022-07-25T03:43:05;17.50;99.90
22966;DHT22;11649;48.090;9.754;2022-07-25T03:45:32;17.70;99.90
22966;DHT22;11649;48.090;9.754;2022-07-25T03:47:59;17.90;99.90
22966;DHT22;11649;48.090;9.754;2022-07-25T03:50:26;18.20;99.90
22966;DHT22;11649;48.090;9.754;2022-07-25T03:52:53;18.20;99.90
22966;DHT22;11649;48.090;9.754;2022-07-25T03:55:19;18.00;99.90
22966;DHT22;11649;48.090;9.754;2022-07-25T03:57:46;17.90;99.90
22966;DHT22;11649;48.090;9.754;2022-07-25T04:00:13;17.90;99.90
22966;DHT22;11649;48.090;9.754;2022-07-25T04:02:41;17.60;99.90
22966;DHT22;11649;48.090;9.754;2022-07-25T04:05:08;18.40;99.90
22966;DHT22;11649;48.090;9.754;2022-07-25T04:07:35;17.60;99.90
22966;DHT22;11649;48.090;9.754;2022-07-25T04:10:04;17.90;99.90
22966;DHT22;11649;48.090;9.754;2022-07-25T04:12:32;17.50;99.90
22966;DHT22;11649;48.090;9.754;2022-07-25T04:14:59;17.70;99.90
22966;DHT22;11649;48.090;9.754;2022-07-25T04:17:25;17.80;99.90
22966;DHT22;11649;48.090;9.754;2022-07-25T04:19:52;17.50;99.90
22966;DHT22;11649;48.090;9.754;2022-07-25T04:22:20;17.50;99.90
22966;DHT22;11649;48.090;9.754;2022-07-25T04:24:47;17.60;99.90
22966;DHT22;11649;48.090;9.754;2022-07-25T04:27:14;17.40;99.90
22966;DHT22;11649;48.090;9.754;2022-07-25T04:29:41;17.50;99.90
22966;DHT22;11649;48.090;9.754;2022-07-25T04:32:07;17.40;99.90
22966;DHT22;11649;48.090;9.754;2022-07-25T04:34:34;17.50;99.90
22966;DHT22;11649;48.090;9.754;2022-07-25T04:37:01;17.50;99.90
22966;DHT22;11649;48.090;9.754;2022-07-25T04:39:28;17.40;99.90
22966;DHT22;11649;48.090;9.754;2022-07-25T04:41:55;17.80;99.90
22966;DHT22;11649;48.090;9.754;2022-07-25T04:44:22;17.60;99.90
22966;DHT22;11649;48.090;9.754;2022-07-25T04:46:48;17.60;99.90
22966;DHT22;11649;48.090;9.754;2022-07-25T04:49:15;17.70;99.90
22966;DHT22;11649;48.090;9.754;2022-07-25T04:51:42;18.30;99.90
22966;DHT22;11649;48.090;9.754;2022-07-25T04:54:09;17.90;99.90
22966;DHT22;11649;48.090;9.754;2022-07-25T04:56:36;18.00;99.90
22966;DHT22;11649;48.090;9.754;2022-07-25T04:59:03;18.10;99.90
22966;DHT22;11649;48.090;9.754;2022-07-25T05:01:33;18.40;99.90
22966;DHT22;11649;48.090;9.754;2022-07-25T05:04:00;18.60;99.90
22966;DHT22;11649;48.090;9.754;2022-07-25T05:06:27;18.10;99.90
22966;DHT22;11649;48.090;9.754;2022-07-25T05:08:53;18.20;99.90
22966;DHT22;11649;48.090;9.754;2022-07-25T05:11:21;18.00;99.90
22966;DHT22;11649;48.090;9.754;2022-07-25T05:13:48;18.40;99.90
22966;DHT22;11649;48.090;9.754;2022-07-25T05:16:15;18.40;99.90
22966;DHT22;11649;48.090;9.754;2022-07-25T05:18:41;18.00;99.90
22966;DHT22;11649;48.090;9.754;2022-07-25T05:21:10;18.10;99.90
22966;DHT22;11649;48.090;9.754;2022-07-25T05:23:37;18.10;99.90
22966;DHT22;11649;48.090;9.754;2022-07-25T05:26:04;18.30;99.90
22966;DHT22;11649;48.090;9.754;2022-07-25T05:28:31;18.20;99.90
22966;DHT22;11649;48.090;9.754;2022-07-25T05:30:58;18.40;99.90
22966;DHT22;11649;48.090;9.754;2022-07-25T05:33:25;18.60;99.90
22966;DHT22;11649;48.090;9.754;2022-07-25T05:35:52;18.50;99.90
22966;DHT22;11649;48.090;9.754;2022-07-25T05:38:19;18.70;99.90
22966;DHT22;11649;48.090;9.754;2022-07-25T05:40:46;19.50;99.90
22966;DHT22;11649;48.090;9.754;2022-07-25T05:43:13;18.80;99.90
22966;DHT22;11649;48.090;9.754;2022-07-25T05:45:40;18.70;99.90
22966;DHT22;11649;48.090;9.754;2022-07-25T05:48:07;18.80;99.90
22966;DHT22;11649;48.090;9.754;2022-07-25T05:50:38;19.20;99.90
22966;DHT22;11649;48.090;9.754;2022-07-25T05:53:05;19.00;99.90
22966;DHT22;11649;48.090;9.754;2022-07-25T05:55:32;19.10;99.90
22966;DHT22;11649;48.090;9.754;2022-07-25T05:57:58;19.10;99.90
22966;DHT22;11649;48.090;9.754;2022-07-25T06:00:28;19.20;99.90
22966;DHT22;11649;48.090;9.754;2022-07-25T06:02:57;19.30;99.90
22966;DHT22;11649;48.090;9.754;2022-07-25T06:05:26;19.40;99.90
22966;DHT22;11649;48.090;9.754;2022-07-25T06:07:53;19.60;99.90
22966;DHT22;11649;48.090;9.754;2022-07-25T06:10:20;19.90;99.90
22966;DHT22;11649;48.090;9.754;2022-07-25T06:12:47;20.00;99.90
22966;DHT22;11649;48.090;9.754;2022-07-25T06:15:15;20.10;99.90
22966;DHT22;11649;48.090;9.754;2022-07-25T06:17:52;20.20;99.90
22966;DHT22;11649;48.090;9.754;2022-07-25T06:20:19;20.20;99.90
22966;DHT22;11649;48.090;9.754;2022-07-25T06:22:46;20.40;99.90
22966;DHT22;11649;48.090;9.754;2022-07-25T06:25:13;20.50;99.90
22966;DHT22;11649;48.090;9.754;2022-07-25T06:27:41;20.70;99.90
22966;DHT22;11649;48.090;9.754;2022-07-25T06:30:08;20.80;99.90
22966;DHT22;11649;48.090;9.754;2022-07-25T06:32:46;20.90;99.90
22966;DHT22;11649;48.090;9.754;2022-07-25T06:35:14;21.10;99.90
22966;DHT22;11649;48.090;9.754;2022-07-25T06:37:41;21.20;99.90
22966;DHT22;11649;48.090;9.754;2022-07-25T06:40:08;21.50;99.90
22966;DHT22;11649;48.090;9.754;2022-07-25T06:42:39;21.50;99.90
22966;DHT22;11649;48.090;9.754;2022-07-25T06:45:07;21.60;99.90
22966;DHT22;11649;48.090;9.754;2022-07-25T06:47:39;21.60;99.90
22966;DHT22;11649;48.090;9.754;2022-07-25T06:50:08;21.80;99.90
22966;DHT22;11649;48.090;9.754;2022-07-25T06:52:37;21.90;99.90
22966;DHT22;11649;48.090;9.754;2022-07-25T06:55:06;22.00;99.90
22966;DHT22;11649;48.090;9.754;2022-07-25T06:57:33;22.10;99.90
22966;DHT22;11649;48.090;9.754;2022-07-25T07:00:00;22.20;99.90
22966;DHT22;11649;48.090;9.754;2022-07-25T07:02:26;22.30;99.90
22966;DHT22;11649;48.090;9.754;2022-07-25T07:04:53;22.40;99.90
22966;DHT22;11649;48.090;9.754;2022-07-25T07:07:20;22.40;99.90
22966;DHT22;11649;48.090;9.754;2022-07-25T07:09:47;22.50;99.90
22966;DHT22;11649;48.090;9.754;2022-07-25T07:12:13;22.50;99.90
22966;DHT22;11649;48.090;9.754;2022-07-25T07:14:40;22.70;99.90
22966;DHT22;11649;48.090;9.754;2022-07-25T07:17:10;22.80;99.90
22966;DHT22;11649;48.090;9.754;2022-07-25T07:19:37;22.90;99.90
22966;DHT22;11649;48.090;9.754;2022-07-25T07:22:10;23.00;99.90
22966;DHT22;11649;48.090;9.754;2022-07-25T07:24:39;23.00;99.90
22966;DHT22;11649;48.090;9.754;2022-07-25T07:27:13;23.40;99.90
22966;DHT22;11649;48.090;9.754;2022-07-25T07:29:40;23.40;98.20
22966;DHT22;11649;48.090;9.754;2022-07-25T07:32:07;23.40;97.10
22966;DHT22;11649;48.090;9.754;2022-07-25T07:34:34;23.50;95.90
22966;DHT22;11649;48.090;9.754;2022-07-25T07:37:01;23.70;96.50
22966;DHT22;11649;48.090;9.754;2022-07-25T07:39:29;23.70;94.70
22966;DHT22;11649;48.090;9.754;2022-07-25T07:41:55;23.80;95.20
22966;DHT22;11649;48.090;9.754;2022-07-25T07:44:22;23.80;94.90
22966;DHT22;11649;48.090;9.754;2022-07-25T07:46:49;24.00;97.10
22966;DHT22;11649;48.090;9.754;2022-07-25T07:49:16;24.00;93.50
22966;DHT22;11649;48.090;9.754;2022-07-25T07:51:43;24.10;92.30
22966;DHT22;11649;48.090;9.754;2022-07-25T07:54:09;24.10;92.50
22966;DHT22;11649;48.090;9.754;2022-07-25T07:56:55;24.20;92.40
22966;DHT22;11649;48.090;9.754;2022-07-25T07:59:22;24.20;92.60
22966;DHT22;11649;48.090;9.754;2022-07-25T08:01:48;24.30;92.00
22966;DHT22;11649;48.090;9.754;2022-07-25T08:04:15;24.40;92.20
22966;DHT22;11649;48.090;9.754;2022-07-25T08:06:42;24.50;92.10
22966;DHT22;11649;48.090;9.754;2022-07-25T08:09:09;24.60;91.00
22966;DHT22;11649;48.090;9.754;2022-07-25T08:11:37;24.70;93.00
22966;DHT22;11649;48.090;9.754;2022-07-25T08:14:03;24.90;90.60
22966;DHT22;11649;48.090;9.754;2022-07-25T08:16:33;24.90;91.70
22966;DHT22;11649;48.090;9.754;2022-07-25T08:19:00;25.20;88.40
22966;DHT22;11649;48.090;9.754;2022-07-25T08:21:27;25.20;86.80
22966;DHT22;11649;48.090;9.754;2022-07-25T08:23:54;25.20;86.70
22966;DHT22;11649;48.090;9.754;2022-07-25T08:26:21;25.30;89.50
22966;DHT22;11649;48.090;9.754;2022-07-25T08:28:47;25.40;86.30
22966;DHT22;11649;48.090;9.754;2022-07-25T08:31:34;25.40;88.70
22966;DHT22;11649;48.090;9.754;2022-07-25T08:34:01;25.40;88.30
22966;DHT22;11649;48.090;9.754;2022-07-25T08:36:30;25.60;87.00
22966;DHT22;11649;48.090;9.754;2022-07-25T08:39:00;25.60;87.30
22966;DHT22;11649;48.090;9.754;2022-07-25T08:41:27;25.70;84.70
22966;DHT22;11649;48.090;9.754;2022-07-25T08:43:54;25.70;83.40
22966;DHT22;11649;48.090;9.754;2022-07-25T08:46:21;25.60;86.60
22966;DHT22;11649;48.090;9.754;2022-07-25T08:48:49;25.70;84.60
22966;DHT22;11649;48.090;9.754;2022-07-25T08:51:18;25.80;87.20
22966;DHT22;11649;48.090;9.754;2022-07-25T08:53:45;25.90;85.60
22966;DHT22;11649;48.090;9.754;2022-07-25T08:56:14;25.90;84.50
22966;DHT22;11649;48.090;9.754;2022-07-25T08:58:46;26.00;83.30
22966;DHT22;11649;48.090;9.754;2022-07-25T09:01:13;26.10;82.20
22966;DHT22;11649;48.090;9.754;2022-07-25T09:03:41;26.20;83.30
22966;DHT22;11649;48.090;9.754;2022-07-25T09:06:20;26.20;87.70
22966;DHT22;11649;48.090;9.754;2022-07-25T09:08:54;26.40;83.50
22966;DHT22;11649;48.090;9.754;2022-07-25T09:11:26;26.40;81.90
22966;DHT22;11649;48.090;9.754;2022-07-25T09:14:00;26.50;80.50
22966;DHT22;11649;48.090;9.754;2022-07-25T09:16:29;26.60;79.90
22966;DHT22;11649;48.090;9.754;2022-07-25T09:19:12;26.60;78.10
22966;DHT22;11649;48.090;9.754;2022-07-25T09:21:40;26.70;79.60
22966;DHT22;11649;48.090;9.754;2022-07-25T09:24:18;26.70;79.50
22966;DHT22;11649;48.090;9.754;2022-07-25T09:26:53;26.80;79.40
22966;DHT22;11649;48.090;9.754;2022-07-25T09:29:26;27.00;78.60
22966;DHT22;11649;48.090;9.754;2022-07-25T09:31:54;27.10;80.40
22966;DHT22;11649;48.090;9.754;2022-07-25T09:37:01;27.20;79.80
22966;DHT22;11649;48.090;9.754;2022-07-25T09:39:50;27.20;78.30
22966;DHT22;11649;48.090;9.754;2022-07-25T09:45:07;27.30;76.70
22966;DHT22;11649;48.090;9.754;2022-07-25T09:47:53;27.40;78.90
22966;DHT22;11649;48.090;9.754;2022-07-25T09:50:22;27.40;74.20
22966;DHT22;11649;48.090;9.754;2022-07-25T09:52:51;27.40;77.30
22966;DHT22;11649;48.090;9.754;2022-07-25T09:55:20;27.50;74.90
22966;DHT22;11649;48.090;9.754;2022-07-25T09:57:48;27.50;76.60
22966;DHT22;11649;48.090;9.754;2022-07-25T10:00:23;27.60;78.40
22966;DHT22;11649;48.090;9.754;2022-07-25T10:08:23;28.00;64.80
22966;DHT22;11649;48.090;9.754;2022-07-25T10:10:51;28.20;63.70
22966;DHT22;11649;48.090;9.754;2022-07-25T10:13:31;28.20;62.70
22966;DHT22;11649;48.090;9.754;2022-07-25T10:16:00;28.30;63.60
22966;DHT22;11649;48.090;9.754;2022-07-25T10:18:29;28.30;61.40
22966;DHT22;11649;48.090;9.754;2022-07-25T10:21:16;28.30;61.20
22966;DHT22;11649;48.090;9.754;2022-07-25T10:24:03;28.50;59.30
22966;DHT22;11649;48.090;9.754;2022-07-25T10:26:36;28.70;61.00
22966;DHT22;11649;48.090;9.754;2022-07-25T10:29:10;28.70;52.50
22966;DHT22;11649;48.090;9.754;2022-07-25T10:31:43;28.80;49.70
22966;DHT22;11649;48.090;9.754;2022-07-25T10:34:27;28.80;50.00
22966;DHT22;11649;48.090;9.754;2022-07-25T10:37:08;28.80;50.10
22966;DHT22;11649;48.090;9.754;2022-07-25T10:39:43;29.00;50.00
22966;DHT22;11649;48.090;9.754;2022-07-25T10:42:15;28.90;50.60
22966;DHT22;11649;48.090;9.754;2022-07-25T10:44:46;29.00;50.90
22966;DHT22;11649;48.090;9.754;2022-07-25T10:47:14;29.10;50.60
22966;DHT22;11649;48.090;9.754;2022-07-25T10:49:44;29.10;48.50
22966;DHT22;11649;48.090;9.754;2022-07-25T10:52:31;29.10;49.20
22966;DHT22;11649;48.090;9.754;2022-07-25T10:55:05;29.20;49.80
22966;DHT22;11649;48.090;9.754;2022-07-25T10:57:32;29.30;48.20
22966;DHT22;11649;48.090;9.754;2022-07-25T11:00:04;29.40;46.60
22966;DHT22;11649;48.090;9.754;2022-07-25T11:02:31;29.50;47.50
22966;DHT22;11649;48.090;9.754;2022-07-25T11:05:00;29.40;47.80
22966;DHT22;11649;48.090;9.754;2022-07-25T11:07:27;29.50;46.90
22966;DHT22;11649;48.090;9.754;2022-07-25T11:09:59;29.50;45.50
22966;DHT22;11649;48.090;9.754;2022-07-25T11:12:26;29.60;46.00
22966;DHT22;11649;48.090;9.754;2022-07-25T11:15:01;29.80;45.70
22966;DHT22;11649;48.090;9.754;2022-07-25T11:17:29;29.90;45.00
22966;DHT22;11649;48.090;9.754;2022-07-25T11:20:09;29.80;45.80
22966;DHT22;11649;48.090;9.754;2022-07-25T11:22:37;30.10;46.60
22966;DHT22;11649;48.090;9.754;2022-07-25T11:25:12;30.10;46.00
22966;DHT22;11649;48.090;9.754;2022-07-25T11:27:42;30.30;44.60
22966;DHT22;11649;48.090;9.754;2022-07-25T11:30:17;30.30;45.30
22966;DHT22;11649;48.090;9.754;2022-07-25T11:32:50;30.40;44.10
22966;DHT22;11649;48.090;9.754;2022-07-25T11:35:22;30.50;44.60
22966;DHT22;11649;48.090;9.754;2022-07-25T11:37:50;30.50;44.00
22966;DHT22;11649;48.090;9.754;2022-07-25T11:40:19;30.60;44.60
22966;DHT22;11649;48.090;9.754;2022-07-25T11:42:51;30.70;44.70
22966;DHT22;11649;48.090;9.754;2022-07-25T11:45:21;30.80;45.40
22966;DHT22;11649;48.090;9.754;2022-07-25T11:48:09;31.00;45.10
22966;DHT22;11649;48.090;9.754;2022-07-25T11:50:38;31.00;43.60
22966;DHT22;11649;48.090;9.754;2022-07-25T11:53:07;31.00;45.20
22966;DHT22;11649;48.090;9.754;2022-07-25T11:55:36;30.90;45.10
22966;DHT22;11649;48.090;9.754;2022-07-25T11:58:05;31.10;43.50
22966;DHT22;11649;48.090;9.754;2022-07-25T12:00:34;31.10;44.70
22966;DHT22;11649;48.090;9.754;2022-07-25T12:03:07;31.10;43.80
22966;DHT22;11649;48.090;9.754;2022-07-25T12:05:34;31.20;44.20
22966;DHT22;11649;48.090;9.754;2022-07-25T12:08:19;31.30;45.00
22966;DHT22;11649;48.090;9.754;2022-07-25T12:10:47;31.40;44.30
22966;DHT22;11649;48.090;9.754;2022-07-25T12:13:27;31.50;43.40
22966;DHT22;11649;48.090;9.754;2022-07-25T12:15:58;31.60;44.70
22966;DHT22;11649;48.090;9.754;2022-07-25T12:18:26;31.70;43.80
22966;DHT22;11649;48.090;9.754;2022-07-25T12:20:53;31.80;42.40
22966;DHT22;11649;48.090;9.754;2022-07-25T12:23:19;32.00;42.50
22966;DHT22;11649;48.090;9.754;2022-07-25T12:25:49;32.00;42.10
22966;DHT22;11649;48.090;9.754;2022-07-25T12:28:16;32.00;42.40
22966;DHT22;11649;48.090;9.754;2022-07-25T12:30:44;32.10;41.20
22966;DHT22;11649;48.090;9.754;2022-07-25T12:33:12;32.20;41.40
22966;DHT22;11649;48.090;9.754;2022-07-25T12:35:40;32.30;41.50
22966;DHT22;11649;48.090;9.754;2022-07-25T12:38:08;32.40;41.60
22966;DHT22;11649;48.090;9.754;2022-07-25T12:40:36;32.60;41.80
22966;DHT22;11649;48.090;9.754;2022-07-25T12:43:03;32.60;40.50
22966;DHT22;11649;48.090;9.754;2022-07-25T12:45:30;32.60;39.70
22966;DHT22;11649;48.090;9.754;2022-07-25T12:47:57;32.70;39.20
22966;DHT22;11649;48.090;9.754;2022-07-25T12:50:24;32.70;40.20
22966;DHT22;11649;48.090;9.754;2022-07-25T12:52:51;32.80;41.00
22966;DHT22;11649;48.090;9.754;2022-07-25T12:55:19;32.80;40.20
22966;DHT22;11649;48.090;9.754;2022-07-25T12:57:46;33.20;38.70
22966;DHT22;11649;48.090;9.754;2022-07-25T13:00:17;33.40;38.30
22966;DHT22;11649;48.090;9.754;2022-07-25T13:02:44;33.50;37.90
22966;DHT22;11649;48.090;9.754;2022-07-25T13:05:11;33.50;37.90
22966;DHT22;11649;48.090;9.754;2022-07-25T13:07:38;34.00;36.50
22966;DHT22;11649;48.090;9.754;2022-07-25T13:10:05;34.40;36.10
22966;DHT22;11649;48.090;9.754;2022-07-25T13:12:32;34.70;36.30
22966;DHT22;11649;48.090;9.754;2022-07-25T13:14:59;35.30;34.70
22966;DHT22;11649;48.090;9.754;2022-07-25T13:17:27;35.40;33.70
22966;DHT22;11649;48.090;9.754;2022-07-25T13:19:55;35.30;35.20
22966;DHT22;11649;48.090;9.754;2022-07-25T13:22:22;35.40;34.60
22966;DHT22;11649;48.090;9.754;2022-07-25T13:24:49;35.80;34.30
22966;DHT22;11649;48.090;9.754;2022-07-25T13:27:18;36.20;32.60
22966;DHT22;11649;48.090;9.754;2022-07-25T13:29:45;36.30;31.20
22966;DHT22;11649;48.090;9.754;2022-07-25T13:32:12;36.60;32.50
22966;DHT22;11649;48.090;9.754;2022-07-25T13:34:39;36.60;31.80
22966;DHT22;11649;48.090;9.754;2022-07-25T13:37:06;36.80;30.80
22966;DHT22;11649;48.090;9.754;2022-07-25T13:39:32;36.40;32.40
22966;DHT22;11649;48.090;9.754;2022-07-25T13:42:01;36.30;33.00
22966;DHT22;11649;48.090;9.754;2022-07-25T13:44:28;35.90;34.20
22966;DHT22;11649;48.090;9.754;2022-07-25T13:46:55;35.90;32.90
22966;DHT22;11649;48.090;9.754;2022-07-25T13:49:23;36.20;32.10
22966;DHT22;11649;48.090;9.754;2022-07-25T13:51:50;36.80;30.90
22966;DHT22;11649;48.090;9.754;2022-07-25T13:54:17;37.10;31.10
22966;DHT22;11649;48.090;9.754;2022-07-25T13:56:44;37.40;29.20
22966;DHT22;11649;48.090;9.754;2022-07-25T13:59:10;37.50;29.70
22966;DHT22;11649;48.090;9.754;2022-07-25T14:01:46;37.90;29.10
22966;DHT22;11649;48.090;9.754;2022-07-25T14:04:13;38.40;29.20
22966;DHT22;11649;48.090;9.754;2022-07-25T14:06:40;38.60;28.60
22966;DHT22;11649;48.090;9.754;2022-07-25T14:09:07;38.90;27.70
22966;DHT22;11649;48.090;9.754;2022-07-25T14:11:34;38.90;27.50
22966;DHT22;11649;48.090;9.754;2022-07-25T14:14:01;39.20;26.90
22966;DHT22;11649;48.090;9.754;2022-07-25T14:16:28;39.20;26.40
22966;DHT22;11649;48.090;9.754;2022-07-25T14:18:55;39.20;26.50
22966;DHT22;11649;48.090;9.754;2022-07-25T14:21:22;39.00;26.80
22966;DHT22;11649;48.090;9.754;2022-07-25T14:23:50;38.80;27.10
22966;DHT22;11649;48.090;9.754;2022-07-25T14:26:17;38.90;26.70
22966;DHT22;11649;48.090;9.754;2022-07-25T14:28:44;38.90;26.50
22966;DHT22;11649;48.090;9.754;2022-07-25T14:31:11;38.90;27.00
22966;DHT22;11649;48.090;9.754;2022-07-25T14:33:38;38.10;27.10
22966;DHT22;11649;48.090;9.754;2022-07-25T14:36:08;37.60;27.80
22966;DHT22;11649;48.090;9.754;2022-07-25T14:38:35;37.70;26.60
22966;DHT22;11649;48.090;9.754;2022-07-25T14:41:02;38.30;27.10
22966;DHT22;11649;48.090;9.754;2022-07-25T14:43:34;38.80;25.60
22966;DHT22;11649;48.090;9.754;2022-07-25T14:46:01;38.60;27.00
22966;DHT22;11649;48.090;9.754;2022-07-25T14:48:28;38.60;26.40
22966;DHT22;11649;48.090;9.754;2022-07-25T14:50:54;38.60;26.80
22966;DHT22;11649;48.090;9.754;2022-07-25T14:53:21;38.80;26.30
22966;DHT22;11649;48.090;9.754;2022-07-25T14:55:48;38.60;26.90
22966;DHT22;11649;48.090;9.754;2022-07-25T14:58:15;38.20;26.00
22966;DHT22;11649;48.090;9.754;2022-07-25T15:00:42;37.70;27.20
22966;DHT22;11649;48.090;9.754;2022-07-25T15:03:09;37.00;27.40
22966;DHT22;11649;48.090;9.754;2022-07-25T15:05:36;36.20;28.30
22966;DHT22;11649;48.090;9.754;2022-07-25T15:08:05;35.20;29.60
22966;DHT22;11649;48.090;9.754;2022-07-25T15:10:32;34.60;30.30
22966;DHT22;11649;48.090;9.754;2022-07-25T15:12:59;34.50;30.60
22966;DHT22;11649;48.090;9.754;2022-07-25T15:15:46;35.00;30.40
22966;DHT22;11649;48.090;9.754;2022-07-25T15:18:13;35.70;29.70
22966;DHT22;11649;48.090;9.754;2022-07-25T15:20:40;35.70;29.60
22966;DHT22;11649;48.090;9.754;2022-07-25T15:23:07;35.40;29.60
22966;DHT22;11649;48.090;9.754;2022-07-25T15:25:34;35.10;31.00
22966;DHT22;11649;48.090;9.754;2022-07-25T15:28:21;35.10;31.60
22966;DHT22;11649;48.090;9.754;2022-07-25T15:30:48;35.90;30.20
22966;DHT22;11649;48.090;9.754;2022-07-25T15:33:19;36.80;30.70
22966;DHT22;11649;48.090;9.754;2022-07-25T15:35:46;37.20;30.00
22966;DHT22;11649;48.090;9.754;2022-07-25T15:38:14;36.90;29.20
22966;DHT22;11649;48.090;9.754;2022-07-25T15:40:42;36.80;29.50
22966;DHT22;11649;48.090;9.754;2022-07-25T15:43:09;36.30;29.70
22966;DHT22;11649;48.090;9.754;2022-07-25T15:45:38;35.50;31.10
22966;DHT22;11649;48.090;9.754;2022-07-25T15:48:06;34.70;32.10
22966;DHT22;11649;48.090;9.754;2022-07-25T15:50:35;34.10;33.90